AirNav   Bose ProFlight Series 2 Headset
 
 1529 users online  

44CL Balsdon Airport
Grimes, California, USA

GOING TO GRIMES?


FAA INFORMATION EFFECTIVE 27 FEBRUARY 2020

Location

FAA Identifier: 44CL
Lat/Long: 39-02-52.2750N 121-57-01.4000W
39-02.871250N 121-57.023333W
39.0478542,-121.9503889
(estimated)
Elevation: 35 ft. / 11 m (estimated)
From city: 3 miles WSW of GRIMES, CA
Time zone: UTC -8 (UTC -7 during Daylight Saving Time)
Zip code: 95912

Airport Operations

Airport use: Private use. Permission required prior to landing
Activation date: 04/2016
Control tower: no
ARTCC: OAKLAND CENTER
FSS: RANCHO MURIETA FLIGHT SERVICE STATION
Attendance: MON-FRI 0700-1600
Wind indicator: yes
Segmented circle: no

Airport Communications

WX ASOS at MYV (18 nm E): 118.475 (530-742-0695)

Nearby radio navigation aids

VOR radial/distance  VOR name  Freq  Var
ILAr093/3.8WILLIAMS VORTAC114.4018E
MYVr244/17.8MARYSVILLE VOR/DME110.8016E
MCCr295/34.2MC CLELLAN VOR/DME109.2017E

Airport Services

Runway Information

Runway 12/30

Dimensions: 2323 x 30 ft. / 708 x 9 m
Surface: asphalt
RUNWAY 12  RUNWAY 30
Latitude: 39-03.018000N39-02.724500N
Longitude: 121-57.180833W121-56.865833W
Elevation: 42.0 ft.33.0 ft.
Traffic pattern: leftleft
Touchdown point: yes, no lightsyes, no lights

Airport Ownership and Management from official FAA records

Ownership: Privately-owned
Owner: STRAIN BASIN LAND
P.O. BOX 807
ARBUCKLE, CA 95912
Phone 530-476-3286
Manager: DERICK STRAIN
P.O. BOX 807
ARBUCKLE, CA 95912
Phone 530-476-3286

Additional Remarks

FOR CD CTC OAKLAND ARTCC AT 510-745-3380.

Instrument Procedures

There are no published instrument procedures at 44CL.

Some nearby airports with instrument procedures:

O08 - Colusa County Airport (8 nm N)
KMYV - Yuba County Airport (18 nm E)
O41 - Watts-Woodland Airport (23 nm S)
KBAB - Beale Air Force Base (25 nm E)
KSMF - Sacramento International Airport (27 nm SE)
 
Loc | Ops | Rwys | IFR | FBO | Links
Com | Nav | Svcs | Stats | Notes
Aerial photo
No photo
 
Airport distance calculator
Flying to Balsdon Airport? Find the distance to fly.

From to 44CL

Sunrise and sunset
Times for 27-Feb-2020
 Local
(UTC-8)
 Zulu
(UTC)
Morning civil twilight06:1714:17
Sunrise06:4414:44
Sunset17:5701:57
Evening civil twilight18:2402:24

Current date and time
Zulu (UTC)  27-Feb-2020 21:39:50
Local (UTC-8)  27-Feb-2020 13:39:50
 
METAR
KMYV 
18nm E 
272053Z AUTO 04004KT 10SM CLR 23/03 A3022 RMK AO2 SLP237 T02280033 58022
KBAB 
25nm E 
272056Z AUTO 26003KT 10SM CLR 22/02 A3020 RMK AO2 SLP230 T02180020 58021 $
KSMF 
27nm SE 
272053Z 34004KT 10SM FEW250 21/07 A3022 RMK AO2 SLP232 T02110072 58019
KLHM 
29nm E 
272115Z AUTO 26004KT 10SM CLR 21/05 A3020 RMK AO1
KOVE 
31nm NE 
272053Z AUTO 29003KT 10SM CLR 21/04 A3023 RMK AO2 SLP239 T02110039 58019
KEDU 
32nm S 
272120Z AUTO 03006KT 10SM CLR 22/05 A3022 RMK AO1
KMCC 
34nm SE 
272115Z AUTO 33004KT 10SM CLR 22/07 A3021 RMK AO2
TAF
KBAB 
25nm E 
271101Z 2711/2817 VRB06KT 9999 FEW200 QNH3022INS TX21/2800Z TN06/2715Z
KSMF 
27nm SE 
271735Z 2718/2818 33004KT P6SM SKC
NOTAMs
Click for the latest NOTAMs
NOTAMs are issued by the DoD/FAA and will open in a separate window not controlled by AirNav.

 

 
 

Would you like to see your business listed on this page?

 If your business provides an interesting product or service to pilots, flight crews, aircraft, or users of the Balsdon Airport, you should consider listing it here.  To start the listing process, click on the button below
 
Add a business
 

Other Pages about Balsdon Airport

Update a link
 
Copyright © AirNav, LLC. All rights reserved. Privacy Policy  Contact